sensor_id;sensor_type;location;lat;lon;timestamp;pressure;altitude;pressure_sealevel;temperature;humidity
68329;BME280;55182;56.864;60.554;2023-07-31T00:00:56;73171.91;;;-143.60;86.86
68329;BME280;55182;56.864;60.554;2023-07-31T00:03:21;73171.91;;;-143.60;86.87
68329;BME280;55182;56.864;60.554;2023-07-31T00:05:47;73169.91;;;-143.60;87.44
68329;BME280;55182;56.864;60.554;2023-07-31T00:08:12;73171.91;;;-143.60;87.80
68329;BME280;55182;56.864;60.554;2023-07-31T00:10:38;73179.94;;;-143.60;88.04
68329;BME280;55182;56.864;60.554;2023-07-31T00:13:03;73179.94;;;-143.60;87.99
68329;BME280;55182;56.864;60.554;2023-07-31T00:15:28;73173.91;;;-143.60;88.08
68329;BME280;55182;56.864;60.554;2023-07-31T00:17:54;73171.91;;;-143.60;87.97
68329;BME280;55182;56.864;60.554;2023-07-31T00:20:19;73165.88;;;-143.60;88.23
68329;BME280;55182;56.864;60.554;2023-07-31T00:22:45;73157.84;;;-143.60;88.29
68329;BME280;55182;56.864;60.554;2023-07-31T00:25:10;73153.84;;;-143.60;88.26
68329;BME280;55182;56.864;60.554;2023-07-31T00:27:36;73153.84;;;-143.60;88.70
68329;BME280;55182;56.864;60.554;2023-07-31T00:30:01;73149.81;;;-143.60;88.47
68329;BME280;55182;56.864;60.554;2023-07-31T00:32:27;73139.78;;;-143.60;88.38
68329;BME280;55182;56.864;60.554;2023-07-31T00:34:53;73135.75;;;-143.60;88.39
68329;BME280;55182;56.864;60.554;2023-07-31T00:37:18;73125.72;;;-143.60;88.42
68329;BME280;55182;56.864;60.554;2023-07-31T00:39:43;73121.72;;;-143.60;88.25
68329;BME280;55182;56.864;60.554;2023-07-31T00:42:09;73121.72;;;-143.60;88.18
68329;BME280;55182;56.864;60.554;2023-07-31T00:44:34;73117.69;;;-143.60;88.22
68329;BME280;55182;56.864;60.554;2023-07-31T00:47:00;73113.69;;;-143.60;88.02
68329;BME280;55182;56.864;60.554;2023-07-31T00:49:25;73107.66;;;-143.60;87.96
68329;BME280;55182;56.864;60.554;2023-07-31T00:51:51;73109.66;;;-143.60;87.81
68329;BME280;55182;56.864;60.554;2023-07-31T00:54:17;73097.63;;;-143.60;87.66
68329;BME280;55182;56.864;60.554;2023-07-31T00:56:44;73085.56;;;-143.60;87.63
68329;BME280;55182;56.864;60.554;2023-07-31T00:59:10;73077.53;;;-143.60;87.38
68329;BME280;55182;56.864;60.554;2023-07-31T01:01:36;73077.53;;;-143.60;87.16
68329;BME280;55182;56.864;60.554;2023-07-31T01:04:02;73071.50;;;-143.60;87.16
68329;BME280;55182;56.864;60.554;2023-07-31T01:06:36;73065.50;;;-143.60;87.24
68329;BME280;55182;56.864;60.554;2023-07-31T01:09:07;73061.47;;;-143.60;87.23
68329;BME280;55182;56.864;60.554;2023-07-31T01:11:38;73061.47;;;-143.60;87.29
68329;BME280;55182;56.864;60.554;2023-07-31T01:14:08;73057.47;;;-143.60;87.19
68329;BME280;55182;56.864;60.554;2023-07-31T01:16:33;73057.47;;;-143.60;87.09
68329;BME280;55182;56.864;60.554;2023-07-31T01:18:58;73053.44;;;-143.60;87.22
68329;BME280;55182;56.864;60.554;2023-07-31T01:26:36;73041.38;;;-143.60;87.27
68329;BME280;55182;56.864;60.554;2023-07-31T01:29:13;73029.34;;;-143.60;87.39
68329;BME280;55182;56.864;60.554;2023-07-31T01:31:41;73021.31;;;-143.60;86.77
68329;BME280;55182;56.864;60.554;2023-07-31T01:34:07;73019.31;;;-143.60;86.86
68329;BME280;55182;56.864;60.554;2023-07-31T01:36:35;73011.28;;;-143.60;87.01
68329;BME280;55182;56.864;60.554;2023-07-31T01:39:01;73003.25;;;-143.60;86.83
68329;BME280;55182;56.864;60.554;2023-07-31T01:41:26;72995.22;;;-143.60;86.86
68329;BME280;55182;56.864;60.554;2023-07-31T01:43:52;72993.19;;;-143.60;86.61
68329;BME280;55182;56.864;60.554;2023-07-31T01:46:17;72985.16;;;-143.60;86.05
68329;BME280;55182;56.864;60.554;2023-07-31T01:48:43;72969.09;;;-143.60;85.93
68329;BME280;55182;56.864;60.554;2023-07-31T01:51:08;72945.00;;;-143.60;85.21
68329;BME280;55182;56.864;60.554;2023-07-31T01:53:35;72943.00;;;-143.60;84.63
68329;BME280;55182;56.864;60.554;2023-07-31T01:56:00;72932.97;;;-143.60;84.54
68329;BME280;55182;56.864;60.554;2023-07-31T01:58:26;72922.94;;;-143.60;84.03
68329;BME280;55182;56.864;60.554;2023-07-31T02:00:51;72908.88;;;-143.60;83.52
68329;BME280;55182;56.864;60.554;2023-07-31T02:03:17;72896.81;;;-143.60;82.90
68329;BME280;55182;56.864;60.554;2023-07-31T02:05:46;72888.78;;;-143.60;82.32
68329;BME280;55182;56.864;60.554;2023-07-31T02:08:12;72878.75;;;-143.60;82.47
68329;BME280;55182;56.864;60.554;2023-07-31T02:10:38;72866.72;;;-143.60;81.63
68329;BME280;55182;56.864;60.554;2023-07-31T02:13:04;72864.69;;;-143.60;81.59
68329;BME280;55182;56.864;60.554;2023-07-31T02:15:30;72858.66;;;-143.60;81.53
68329;BME280;55182;56.864;60.554;2023-07-31T02:17:56;72860.69;;;-143.60;81.23
68329;BME280;55182;56.864;60.554;2023-07-31T02:20:22;72864.69;;;-143.60;81.78
68329;BME280;55182;56.864;60.554;2023-07-31T02:22:47;72864.69;;;-143.60;81.33
68329;BME280;55182;56.864;60.554;2023-07-31T02:25:13;72856.66;;;-143.60;81.31
68329;BME280;55182;56.864;60.554;2023-07-31T02:27:38;72852.66;;;-143.60;81.43
68329;BME280;55182;56.864;60.554;2023-07-31T02:30:04;72856.66;;;-143.60;81.21
68329;BME280;55182;56.864;60.554;2023-07-31T02:32:30;72848.63;;;-143.60;81.68
68329;BME280;55182;56.864;60.554;2023-07-31T02:34:55;72842.63;;;-143.60;80.90
68329;BME280;55182;56.864;60.554;2023-07-31T02:37:21;72836.59;;;-143.60;80.89
68329;BME280;55182;56.864;60.554;2023-07-31T02:39:46;72828.56;;;-143.60;81.09
68329;BME280;55182;56.864;60.554;2023-07-31T02:42:12;72822.53;;;-143.60;80.84
68329;BME280;55182;56.864;60.554;2023-07-31T02:44:38;72814.50;;;-143.60;80.51
68329;BME280;55182;56.864;60.554;2023-07-31T02:47:03;72800.44;;;-143.60;79.63
68329;BME280;55182;56.864;60.554;2023-07-31T02:49:28;72800.44;;;-143.60;79.56
68329;BME280;55182;56.864;60.554;2023-07-31T02:51:54;72784.38;;;-143.60;79.91
68329;BME280;55182;56.864;60.554;2023-07-31T02:54:20;72776.34;;;-143.60;78.90
68329;BME280;55182;56.864;60.554;2023-07-31T02:56:45;72772.34;;;-143.60;79.09
68329;BME280;55182;56.864;60.554;2023-07-31T02:59:11;72768.31;;;-143.60;78.28
68329;BME280;55182;56.864;60.554;2023-07-31T03:01:36;72760.28;;;-143.60;77.87
68329;BME280;55182;56.864;60.554;2023-07-31T03:04:02;72752.25;;;-143.60;78.07
68329;BME280;55182;56.864;60.554;2023-07-31T03:06:27;72756.28;;;-143.60;78.12
68329;BME280;55182;56.864;60.554;2023-07-31T03:08:53;72748.25;;;-143.60;77.86
68329;BME280;55182;56.864;60.554;2023-07-31T03:11:18;72750.25;;;-143.60;78.00
68329;BME280;55182;56.864;60.554;2023-07-31T03:13:43;72744.22;;;-143.60;78.15
68329;BME280;55182;56.864;60.554;2023-07-31T03:16:09;72740.22;;;-143.60;78.46
68329;BME280;55182;56.864;60.554;2023-07-31T03:18:34;72736.19;;;-143.60;78.64
68329;BME280;55182;56.864;60.554;2023-07-31T03:21:00;72732.19;;;-143.60;78.34
68329;BME280;55182;56.864;60.554;2023-07-31T03:23:25;72720.13;;;-143.60;78.67
68329;BME280;55182;56.864;60.554;2023-07-31T03:25:58;72712.09;;;-143.60;77.99
68329;BME280;55182;56.864;60.554;2023-07-31T03:28:27;72704.06;;;-143.60;77.74
68329;BME280;55182;56.864;60.554;2023-07-31T03:30:52;72694.03;;;-143.60;77.97
68329;BME280;55182;56.864;60.554;2023-07-31T03:33:18;72688.00;;;-143.60;77.42
68329;BME280;55182;56.864;60.554;2023-07-31T03:35:43;72679.97;;;-143.60;77.58
68329;BME280;55182;56.864;60.554;2023-07-31T03:38:09;72671.94;;;-143.60;77.36
68329;BME280;55182;56.864;60.554;2023-07-31T03:40:36;72667.94;;;-143.60;77.29
68329;BME280;55182;56.864;60.554;2023-07-31T03:43:01;72655.88;;;-143.60;77.37
68329;BME280;55182;56.864;60.554;2023-07-31T03:45:27;72659.91;;;-143.60;76.90
68329;BME280;55182;56.864;60.554;2023-07-31T03:47:53;72655.88;;;-143.60;77.04
68329;BME280;55182;56.864;60.554;2023-07-31T03:50:19;72647.84;;;-143.60;76.67
68329;BME280;55182;56.864;60.554;2023-07-31T03:52:44;72641.84;;;-143.60;77.04
68329;BME280;55182;56.864;60.554;2023-07-31T03:55:09;72631.78;;;-143.60;77.06
68329;BME280;55182;56.864;60.554;2023-07-31T03:57:35;72619.75;;;-143.60;75.83
68329;BME280;55182;56.864;60.554;2023-07-31T04:00:00;72607.69;;;-143.60;75.00
68329;BME280;55182;56.864;60.554;2023-07-31T04:02:26;72607.69;;;-143.60;75.27
68329;BME280;55182;56.864;60.554;2023-07-31T04:04:51;72597.66;;;-143.60;75.34
68329;BME280;55182;56.864;60.554;2023-07-31T04:07:17;72591.63;;;-143.60;75.83
68329;BME280;55182;56.864;60.554;2023-07-31T04:09:42;72579.59;;;-143.60;75.68
68329;BME280;55182;56.864;60.554;2023-07-31T04:12:07;72571.56;;;-143.60;75.50
68329;BME280;55182;56.864;60.554;2023-07-31T04:14:33;72551.50;;;-143.60;74.05
68329;BME280;55182;56.864;60.554;2023-07-31T04:16:58;72541.44;;;-143.60;73.91
68329;BME280;55182;56.864;60.554;2023-07-31T04:19:24;72531.41;;;-143.60;73.88
68329;BME280;55182;56.864;60.554;2023-07-31T04:21:49;72521.38;;;-143.60;73.66
68329;BME280;55182;56.864;60.554;2023-07-31T04:24:15;72503.31;;;-143.60;73.07
68329;BME280;55182;56.864;60.554;2023-07-31T04:26:40;72491.25;;;-143.60;73.21
68329;BME280;55182;56.864;60.554;2023-07-31T04:29:06;72487.25;;;-143.60;72.60
68329;BME280;55182;56.864;60.554;2023-07-31T04:31:31;72485.22;;;-143.60;72.86
68329;BME280;55182;56.864;60.554;2023-07-31T04:33:56;72477.22;;;-143.60;72.60
68329;BME280;55182;56.864;60.554;2023-07-31T04:36:22;72471.19;;;-143.60;73.07
68329;BME280;55182;56.864;60.554;2023-07-31T04:38:47;72467.16;;;-143.60;72.43
68329;BME280;55182;56.864;60.554;2023-07-31T04:41:13;72455.13;;;-143.60;72.37
68329;BME280;55182;56.864;60.554;2023-07-31T04:43:38;72443.06;;;-143.60;70.58
68329;BME280;55182;56.864;60.554;2023-07-31T04:46:04;72435.03;;;-143.60;70.75
68329;BME280;55182;56.864;60.554;2023-07-31T04:48:29;72429.03;;;-143.60;71.89
68329;BME280;55182;56.864;60.554;2023-07-31T04:50:54;72423.00;;;-143.60;71.02
68329;BME280;55182;56.864;60.554;2023-07-31T04:53:20;72416.97;;;-143.60;70.61
68329;BME280;55182;56.864;60.554;2023-07-31T04:55:45;72406.94;;;-143.60;69.65
68329;BME280;55182;56.864;60.554;2023-07-31T04:58:11;72398.91;;;-143.60;68.74
68329;BME280;55182;56.864;60.554;2023-07-31T05:00:36;72386.88;;;-143.60;68.45
68329;BME280;55182;56.864;60.554;2023-07-31T05:03:02;72384.84;;;-143.60;67.96
68329;BME280;55182;56.864;60.554;2023-07-31T05:05:27;72374.81;;;-143.60;68.36
68329;BME280;55182;56.864;60.554;2023-07-31T05:07:52;72366.78;;;-143.60;67.13
68329;BME280;55182;56.864;60.554;2023-07-31T05:10:18;72360.75;;;-143.60;67.44
68329;BME280;55182;56.864;60.554;2023-07-31T05:12:43;72350.72;;;-143.60;66.18
68329;BME280;55182;56.864;60.554;2023-07-31T05:15:09;72344.69;;;-143.60;66.52
68329;BME280;55182;56.864;60.554;2023-07-31T05:17:34;72330.66;;;-143.60;65.83
68329;BME280;55182;56.864;60.554;2023-07-31T05:20:00;72318.59;;;-143.60;63.75
68329;BME280;55182;56.864;60.554;2023-07-31T05:22:25;72304.56;;;-143.60;61.25
68329;BME280;55182;56.864;60.554;2023-07-31T05:24:51;72294.50;;;-143.60;61.80
68329;BME280;55182;56.864;60.554;2023-07-31T05:27:17;72264.41;;;-143.60;60.39
68329;BME280;55182;56.864;60.554;2023-07-31T05:29:43;72252.34;;;-143.60;59.58
68329;BME280;55182;56.864;60.554;2023-07-31T05:32:08;72242.31;;;-143.60;59.52
68329;BME280;55182;56.864;60.554;2023-07-31T05:34:34;72236.28;;;-143.60;59.26
68329;BME280;55182;56.864;60.554;2023-07-31T05:37:00;72226.25;;;-143.60;58.69
68329;BME280;55182;56.864;60.554;2023-07-31T05:39:25;72218.22;;;-143.60;58.76
68329;BME280;55182;56.864;60.554;2023-07-31T05:41:50;72190.13;;;-143.60;56.99
68329;BME280;55182;56.864;60.554;2023-07-31T05:44:16;72186.09;;;-143.60;57.35
68329;BME280;55182;56.864;60.554;2023-07-31T05:46:42;72186.09;;;-143.60;56.14
68329;BME280;55182;56.864;60.554;2023-07-31T05:49:07;72182.09;;;-143.60;56.64
68329;BME280;55182;56.864;60.554;2023-07-31T05:51:33;72182.09;;;-143.60;56.74
68329;BME280;55182;56.864;60.554;2023-07-31T05:53:58;72176.06;;;-143.60;56.34
68329;BME280;55182;56.864;60.554;2023-07-31T05:56:24;72170.03;;;-143.60;55.82
68329;BME280;55182;56.864;60.554;2023-07-31T05:58:49;72166.03;;;-143.60;56.55
68329;BME280;55182;56.864;60.554;2023-07-31T06:01:15;72162.00;;;-143.60;56.57
68329;BME280;55182;56.864;60.554;2023-07-31T06:03:41;72154.00;;;-143.60;56.66
68329;BME280;55182;56.864;60.554;2023-07-31T06:06:06;72137.94;;;-143.60;55.19
68329;BME280;55182;56.864;60.554;2023-07-31T06:08:32;72129.91;;;-143.60;55.57
68329;BME280;55182;56.864;60.554;2023-07-31T06:10:57;72117.84;;;-143.60;54.82
68329;BME280;55182;56.864;60.554;2023-07-31T06:13:23;72113.84;;;-143.60;54.50
68329;BME280;55182;56.864;60.554;2023-07-31T06:15:48;72121.88;;;-143.60;54.29
68329;BME280;55182;56.864;60.554;2023-07-31T06:18:13;72111.81;;;-143.60;54.45
68329;BME280;55182;56.864;60.554;2023-07-31T06:20:39;72109.81;;;-143.60;54.90
68329;BME280;55182;56.864;60.554;2023-07-31T06:23:05;72097.78;;;-143.60;54.77
68329;BME280;55182;56.864;60.554;2023-07-31T06:25:30;72079.72;;;-143.60;53.96
68329;BME280;55182;56.864;60.554;2023-07-31T06:27:56;72073.69;;;-143.60;53.71
68329;BME280;55182;56.864;60.554;2023-07-31T06:30:21;72069.69;;;-143.60;53.37
68329;BME280;55182;56.864;60.554;2023-07-31T06:32:46;72075.69;;;-143.60;53.02
68329;BME280;55182;56.864;60.554;2023-07-31T06:35:12;72069.69;;;-143.60;53.17
68329;BME280;55182;56.864;60.554;2023-07-31T06:37:37;72061.66;;;-143.60;53.92
68329;BME280;55182;56.864;60.554;2023-07-31T06:40:03;72043.56;;;-143.60;53.89
68329;BME280;55182;56.864;60.554;2023-07-31T06:42:28;72037.56;;;-143.60;54.00
68329;BME280;55182;56.864;60.554;2023-07-31T06:44:54;72021.50;;;-143.60;53.59
68329;BME280;55182;56.864;60.554;2023-07-31T06:47:20;72013.47;;;-143.60;54.30
68329;BME280;55182;56.864;60.554;2023-07-31T06:49:45;71997.41;;;-143.60;53.73
68329;BME280;55182;56.864;60.554;2023-07-31T06:52:10;71989.38;;;-143.60;53.58
68329;BME280;55182;56.864;60.554;2023-07-31T06:54:36;71973.31;;;-143.60;53.22
68329;BME280;55182;56.864;60.554;2023-07-31T06:57:02;71959.25;;;-143.60;52.56
68329;BME280;55182;56.864;60.554;2023-07-31T06:59:27;71953.25;;;-143.60;52.22
68329;BME280;55182;56.864;60.554;2023-07-31T07:01:53;71939.19;;;-143.60;51.73
68329;BME280;55182;56.864;60.554;2023-07-31T07:04:18;71945.22;;;-143.60;51.41
68329;BME280;55182;56.864;60.554;2023-07-31T07:06:44;71921.13;;;-143.60;52.26
68329;BME280;55182;56.864;60.554;2023-07-31T07:09:09;71899.03;;;-143.60;51.17
68329;BME280;55182;56.864;60.554;2023-07-31T07:11:34;71876.97;;;-143.60;49.92
68329;BME280;55182;56.864;60.554;2023-07-31T07:14:00;71856.88;;;-143.60;49.70
68329;BME280;55182;56.864;60.554;2023-07-31T07:16:25;71838.81;;;-143.60;49.88
68329;BME280;55182;56.864;60.554;2023-07-31T07:18:51;71820.75;;;-143.60;49.49
68329;BME280;55182;56.864;60.554;2023-07-31T07:21:16;71802.69;;;-143.60;48.57
68329;BME280;55182;56.864;60.554;2023-07-31T07:23:42;71788.66;;;-143.60;48.86
68329;BME280;55182;56.864;60.554;2023-07-31T07:26:07;71782.63;;;-143.60;48.87
68329;BME280;55182;56.864;60.554;2023-07-31T07:28:33;71778.59;;;-143.60;48.96
68329;BME280;55182;56.864;60.554;2023-07-31T07:30:58;71782.63;;;-143.60;48.09
68329;BME280;55182;56.864;60.554;2023-07-31T07:33:24;71798.69;;;-143.60;48.70
68329;BME280;55182;56.864;60.554;2023-07-31T07:35:49;71812.72;;;-143.60;48.57
68329;BME280;55182;56.864;60.554;2023-07-31T07:38:14;71840.84;;;-143.60;48.93
68329;BME280;55182;56.864;60.554;2023-07-31T07:40:40;71846.84;;;-143.60;49.15
68329;BME280;55182;56.864;60.554;2023-07-31T07:43:06;71836.81;;;-143.60;49.29
68329;BME280;55182;56.864;60.554;2023-07-31T07:45:31;71826.78;;;-143.60;48.62
68329;BME280;55182;56.864;60.554;2023-07-31T07:47:57;71820.75;;;-143.60;48.60
68329;BME280;55182;56.864;60.554;2023-07-31T07:50:22;71812.72;;;-143.60;48.26
68329;BME280;55182;56.864;60.554;2023-07-31T07:52:47;71794.66;;;-143.60;47.53
68329;BME280;55182;56.864;60.554;2023-07-31T07:55:13;71782.63;;;-143.60;47.97
68329;BME280;55182;56.864;60.554;2023-07-31T07:57:38;71772.59;;;-143.60;46.52
68329;BME280;55182;56.864;60.554;2023-07-31T08:00:04;71752.50;;;-143.60;46.58
68329;BME280;55182;56.864;60.554;2023-07-31T08:02:39;71728.44;;;-143.60;46.53
68329;BME280;55182;56.864;60.554;2023-07-31T08:05:04;71698.31;;;-143.60;46.28
68329;BME280;55182;56.864;60.554;2023-07-31T08:07:30;71676.22;;;-143.60;45.05
68329;BME280;55182;56.864;60.554;2023-07-31T08:09:55;71676.22;;;-143.60;44.78
68329;BME280;55182;56.864;60.554;2023-07-31T08:12:21;71664.19;;;-143.60;44.50
68329;BME280;55182;56.864;60.554;2023-07-31T08:14:46;71656.16;;;-143.60;44.16
68329;BME280;55182;56.864;60.554;2023-07-31T08:17:11;71654.16;;;-143.60;44.40
68329;BME280;55182;56.864;60.554;2023-07-31T08:19:37;71652.16;;;-143.60;44.73
68329;BME280;55182;56.864;60.554;2023-07-31T08:22:02;71664.19;;;-143.60;44.70
68329;BME280;55182;56.864;60.554;2023-07-31T08:24:28;71696.31;;;-143.60;45.02
68329;BME280;55182;56.864;60.554;2023-07-31T08:26:53;71722.41;;;-143.60;45.56
68329;BME280;55182;56.864;60.554;2023-07-31T08:29:19;71736.44;;;-143.60;45.57
68329;BME280;55182;56.864;60.554;2023-07-31T08:31:44;71748.50;;;-143.60;45.57
68329;BME280;55182;56.864;60.554;2023-07-31T08:34:10;71754.53;;;-143.60;46.30
68329;BME280;55182;56.864;60.554;2023-07-31T08:36:35;71742.47;;;-143.60;47.86
68329;BME280;55182;56.864;60.554;2023-07-31T08:39:01;71728.44;;;-143.60;47.42
68329;BME280;55182;56.864;60.554;2023-07-31T08:41:27;71716.38;;;-143.60;47.89
68329;BME280;55182;56.864;60.554;2023-07-31T08:43:53;71698.31;;;-143.60;47.68
68329;BME280;55182;56.864;60.554;2023-07-31T08:46:18;71692.28;;;-143.60;46.93
68329;BME280;55182;56.864;60.554;2023-07-31T08:48:45;71688.28;;;-143.60;47.66
68329;BME280;55182;56.864;60.554;2023-07-31T08:51:11;71678.25;;;-143.60;46.51
68329;BME280;55182;56.864;60.554;2023-07-31T08:53:36;71680.25;;;-143.60;45.94
68329;BME280;55182;56.864;60.554;2023-07-31T08:56:01;71700.31;;;-143.60;45.40
68329;BME280;55182;56.864;60.554;2023-07-31T08:58:27;71722.41;;;-143.60;45.18
68329;BME280;55182;56.864;60.554;2023-07-31T09:00:55;71732.44;;;-143.60;46.23
68329;BME280;55182;56.864;60.554;2023-07-31T09:03:22;71726.41;;;-143.60;47.50
68329;BME280;55182;56.864;60.554;2023-07-31T09:05:48;71714.38;;;-143.60;48.62
68329;BME280;55182;56.864;60.554;2023-07-31T09:08:18;71722.41;;;-143.60;48.13
68329;BME280;55182;56.864;60.554;2023-07-31T09:10:45;71730.44;;;-143.60;46.85
68329;BME280;55182;56.864;60.554;2023-07-31T09:13:10;71738.47;;;-143.60;46.37
68329;BME280;55182;56.864;60.554;2023-07-31T09:15:36;71744.47;;;-143.60;45.61
68329;BME280;55182;56.864;60.554;2023-07-31T09:18:02;71762.56;;;-143.60;45.82
68329;BME280;55182;56.864;60.554;2023-07-31T09:20:28;71758.53;;;-143.60;46.29
68329;BME280;55182;56.864;60.554;2023-07-31T09:22:53;71756.53;;;-143.60;46.36
68329;BME280;55182;56.864;60.554;2023-07-31T09:25:21;71740.47;;;-143.60;45.97
68329;BME280;55182;56.864;60.554;2023-07-31T09:30:12;71668.22;;;-143.60;45.14
68329;BME280;55182;56.864;60.554;2023-07-31T09:32:37;71644.13;;;-143.60;45.28
68329;BME280;55182;56.864;60.554;2023-07-31T09:35:12;71614.00;;;-143.60;44.64
68329;BME280;55182;56.864;60.554;2023-07-31T09:37:38;71603.97;;;-143.60;44.13
68329;BME280;55182;56.864;60.554;2023-07-31T09:40:04;71587.91;;;-143.60;44.17
68329;BME280;55182;56.864;60.554;2023-07-31T09:42:30;71595.94;;;-143.60;44.82
68329;BME280;55182;56.864;60.554;2023-07-31T09:44:55;71612.00;;;-143.60;45.08
68329;BME280;55182;56.864;60.554;2023-07-31T09:47:31;71628.06;;;-143.60;45.11
68329;BME280;55182;56.864;60.554;2023-07-31T09:49:57;71628.06;;;-143.60;44.81
68329;BME280;55182;56.864;60.554;2023-07-31T09:52:22;71597.94;;;-143.60;43.92
68329;BME280;55182;56.864;60.554;2023-07-31T09:54:51;71539.75;;;-143.60;43.44
68329;BME280;55182;56.864;60.554;2023-07-31T09:57:16;71499.59;;;-143.60;43.23
68329;BME280;55182;56.864;60.554;2023-07-31T09:59:42;71487.56;;;-143.60;42.56
68329;BME280;55182;56.864;60.554;2023-07-31T10:02:08;71495.59;;;-143.60;42.71
68329;BME280;55182;56.864;60.554;2023-07-31T10:04:39;71525.69;;;-143.60;42.08
68329;BME280;55182;56.864;60.554;2023-07-31T10:07:04;71543.75;;;-143.60;42.83
68329;BME280;55182;56.864;60.554;2023-07-31T10:09:30;71571.88;;;-143.60;43.24
68329;BME280;55182;56.864;60.554;2023-07-31T10:11:59;71591.94;;;-143.60;44.25
68329;BME280;55182;56.864;60.554;2023-07-31T10:14:25;71605.97;;;-143.60;44.20
68329;BME280;55182;56.864;60.554;2023-07-31T10:16:51;71610.00;;;-143.60;43.49
68329;BME280;55182;56.864;60.554;2023-07-31T10:19:18;71620.03;;;-143.60;43.41
68329;BME280;55182;56.864;60.554;2023-07-31T10:21:44;71610.00;;;-143.60;43.56
68329;BME280;55182;56.864;60.554;2023-07-31T10:24:10;71612.00;;;-143.60;43.98
68329;BME280;55182;56.864;60.554;2023-07-31T10:26:37;71608.00;;;-143.60;44.40
68329;BME280;55182;56.864;60.554;2023-07-31T10:29:04;71616.03;;;-143.60;44.67
68329;BME280;55182;56.864;60.554;2023-07-31T10:31:30;71618.03;;;-143.60;45.02
68329;BME280;55182;56.864;60.554;2023-07-31T10:33:56;71628.06;;;-143.60;44.89
68329;BME280;55182;56.864;60.554;2023-07-31T10:36:22;71626.06;;;-143.60;44.60
68329;BME280;55182;56.864;60.554;2023-07-31T10:38:50;71620.03;;;-143.60;44.80
68329;BME280;55182;56.864;60.554;2023-07-31T10:41:16;71601.97;;;-143.60;44.13
68329;BME280;55182;56.864;60.554;2023-07-31T10:43:41;71583.91;;;-143.60;44.42
68329;BME280;55182;56.864;60.554;2023-07-31T10:46:08;71575.88;;;-143.60;44.12
68329;BME280;55182;56.864;60.554;2023-07-31T10:48:33;71565.84;;;-143.60;43.76
68329;BME280;55182;56.864;60.554;2023-07-31T10:50:59;71555.81;;;-143.60;43.57
68329;BME280;55182;56.864;60.554;2023-07-31T10:53:31;71537.75;;;-143.60;43.59
68329;BME280;55182;56.864;60.554;2023-07-31T10:56:00;71515.66;;;-143.60;43.09
68329;BME280;55182;56.864;60.554;2023-07-31T10:58:26;71491.56;;;-143.60;42.54
68329;BME280;55182;56.864;60.554;2023-07-31T11:00:56;71475.53;;;-143.60;42.53
68329;BME280;55182;56.864;60.554;2023-07-31T11:03:24;71479.53;;;-143.60;43.84
68329;BME280;55182;56.864;60.554;2023-07-31T11:05:50;71471.50;;;-143.60;42.00
68329;BME280;55182;56.864;60.554;2023-07-31T11:08:17;71463.47;;;-143.60;42.22
68329;BME280;55182;56.864;60.554;2023-07-31T11:10:44;71449.44;;;-143.60;41.91
68329;BME280;55182;56.864;60.554;2023-07-31T11:13:10;71439.38;;;-143.60;41.43
68329;BME280;55182;56.864;60.554;2023-07-31T11:15:36;71419.31;;;-143.60;41.06
68329;BME280;55182;56.864;60.554;2023-07-31T11:18:01;71419.31;;;-143.60;41.49
68329;BME280;55182;56.864;60.554;2023-07-31T11:20:28;71413.28;;;-143.60;40.97
68329;BME280;55182;56.864;60.554;2023-07-31T11:22:54;71419.31;;;-143.60;41.22
68329;BME280;55182;56.864;60.554;2023-07-31T11:25:20;71429.34;;;-143.60;42.05
68329;BME280;55182;56.864;60.554;2023-07-31T11:27:47;71431.34;;;-143.60;42.40
68329;BME280;55182;56.864;60.554;2023-07-31T11:30:13;71447.41;;;-143.60;42.60
68329;BME280;55182;56.864;60.554;2023-07-31T11:32:39;71457.44;;;-143.60;42.97
68329;BME280;55182;56.864;60.554;2023-07-31T11:35:05;71465.47;;;-143.60;42.77
68329;BME280;55182;56.864;60.554;2023-07-31T11:37:43;71471.50;;;-143.60;43.30
68329;BME280;55182;56.864;60.554;2023-07-31T11:40:09;71481.53;;;-143.60;43.54
68329;BME280;55182;56.864;60.554;2023-07-31T11:42:34;71483.53;;;-143.60;42.99
68329;BME280;55182;56.864;60.554;2023-07-31T11:45:03;71483.53;;;-143.60;43.20
68329;BME280;55182;56.864;60.554;2023-07-31T11:47:29;71493.59;;;-143.60;43.28
68329;BME280;55182;56.864;60.554;2023-07-31T11:49:55;71501.59;;;-143.60;43.65
68329;BME280;55182;56.864;60.554;2023-07-31T11:52:20;71519.69;;;-143.60;44.01
68329;BME280;55182;56.864;60.554;2023-07-31T11:54:46;71523.69;;;-143.60;44.08
68329;BME280;55182;56.864;60.554;2023-07-31T11:57:12;71517.66;;;-143.60;43.86
68329;BME280;55182;56.864;60.554;2023-07-31T11:59:38;71463.47;;;-143.60;44.40
68329;BME280;55182;56.864;60.554;2023-07-31T12:02:04;71335.03;;;-143.60;41.49
68329;BME280;55182;56.864;60.554;2023-07-31T12:04:30;71286.84;;;-143.60;41.10
68329;BME280;55182;56.864;60.554;2023-07-31T12:06:56;71298.91;;;-143.60;39.83
68329;BME280;55182;56.864;60.554;2023-07-31T12:09:21;71270.78;;;-143.60;40.17
68329;BME280;55182;56.864;60.554;2023-07-31T12:11:47;71288.84;;;-143.60;40.07
68329;BME280;55182;56.864;60.554;2023-07-31T12:14:23;71314.94;;;-143.60;40.70
68329;BME280;55182;56.864;60.554;2023-07-31T12:16:52;71335.03;;;-143.60;41.34
68329;BME280;55182;56.864;60.554;2023-07-31T12:19:18;71363.13;;;-143.60;41.94
68329;BME280;55182;56.864;60.554;2023-07-31T12:21:44;71363.13;;;-143.60;41.49
68329;BME280;55182;56.864;60.554;2023-07-31T12:24:09;71375.16;;;-143.60;42.07
68329;BME280;55182;56.864;60.554;2023-07-31T12:26:35;71385.19;;;-143.60;41.98
68329;BME280;55182;56.864;60.554;2023-07-31T12:29:00;71395.22;;;-143.60;42.25
68329;BME280;55182;56.864;60.554;2023-07-31T12:31:27;71401.25;;;-143.60;42.41